메인 페이지
METAR-TAF:

METAR-TAF

공항 :

클린턴 / Burns Flat, 오클라호마, 미국

위도: 35-21-24N, 경도: 099-12-13W, 고도: 585m

현재 날씨관측

예보는 22분 전, 22:53시(UTC)에 발표되었습니다.
5kt
온도 14°C
습도 82%
기압 1017 hPa
시정: 16.1km
고도 1400ft 상공 흐림

METAR: KCSM 232253Z 35005KT 10SM OVC014 14/11 A3003 RMK AO2 SLP163 T01390111

시각: 18:15 (23:15 UTC)

예보

예보는 5 시간 47분 전, 17:28시(UTC)에 발표되었습니다.
예보 대상 시간: 23일 18시부터 24일 18시까지 (UTC)
12kt
시정: 10km
고도 1200ft 상공 흐림
24일 0200시부터 (UTC)
6kt
시정: 10km
고도 25000ft 상공 구름 보통

TAF: KCSM 231728Z 2318/2418 35012KT P6SM OVC012 FM240200 01006KT P6SM SCT250

4,000개 이상의 공항 관측 자료 및 예보 (METAR 및 TAF 보고).

지도상에서 검색 가능한 기상관측소가 노란 점과 빨간 점으로 표시되어 있습니다.

기상관측소 명을 보려면 표시 위로 마우스를 이동하세요.

날씨 관측과 예보를 보려면 클릭하세요.

지도 변경 : 확대하려면 엑스 표시가 있는 녹색 버튼, 축소하려면 빼기 표시가 있는 녹색 버튼, 다음 페이지의 지도를 보려면 녹색 화살표를 클릭하세요.


METAR-TAF: